Time;durP1;ratioP1;P1;durP2;ratioP2;P2;SDS_P1;SDS_P2;PMS_P1;PMS_P2;Temp;Humidity;BMP_temperature;BMP_pressure;BME280_temperature;BME280_humidity;BME280_pressure;Samples;Min_cycle;Max_cycle;Signal;HPM_P1;HPM_P2
2023/08/08 00:01:02;;;;;;;1.65;0.90;;;18.30;99.90;;;;;;5052728;28;20108;-42
2023/08/08 00:03:27;;;;;;;1.25;0.90;;;18.30;99.90;;;;;;5052807;28;20032;-41
2023/08/08 00:05:53;;;;;;;1.40;1.00;;;18.30;99.90;;;;;;5052900;28;20056;-43
2023/08/08 00:08:19;;;;;;;1.65;0.98;;;18.30;99.90;;;;;;5052779;28;20099;-43
2023/08/08 00:10:44;;;;;;;1.48;0.90;;;18.30;99.90;;;;;;5052538;28;20480;-41
2023/08/08 00:13:10;;;;;;;1.00;0.80;;;18.30;99.90;;;;;;5052759;28;20049;-45
2023/08/08 00:15:36;;;;;;;1.30;1.10;;;18.30;99.90;;;;;;5053560;28;20053;-42
2023/08/08 00:18:02;;;;;;;2.45;1.10;;;18.20;99.90;;;;;;5052659;28;20029;-40
2023/08/08 00:20:28;;;;;;;1.42;0.85;;;18.30;99.90;;;;;;5052472;28;20048;-40
2023/08/08 00:22:53;;;;;;;1.77;0.98;;;18.30;99.90;;;;;;5052338;28;20480;-40
2023/08/08 00:25:19;;;;;;;1.42;0.80;;;18.20;99.90;;;;;;5052691;28;20029;-42
2023/08/08 00:27:45;;;;;;;1.35;0.90;;;18.30;99.90;;;;;;5052237;28;20029;-43
2023/08/08 00:30:13;;;;;;;1.48;0.82;;;18.20;99.90;;;;;;5052172;28;20044;-41
2023/08/08 00:32:38;;;;;;;0.80;0.77;;;18.30;99.90;;;;;;5052273;28;20017;-42
2023/08/08 00:35:05;;;;;;;1.48;0.90;;;18.20;99.90;;;;;;5052346;28;20433;-43
2023/08/08 00:37:30;;;;;;;1.98;0.90;;;18.30;99.90;;;;;;5052268;28;20066;-42
2023/08/08 00:39:56;;;;;;;1.00;0.70;;;18.20;99.90;;;;;;5052114;28;20031;-43
2023/08/08 00:42:22;;;;;;;1.77;0.90;;;18.20;99.90;;;;;;5052118;28;20035;-44
2023/08/08 00:44:47;;;;;;;4.35;0.95;;;18.30;99.90;;;;;;5051999;28;20029;-41
2023/08/08 00:47:13;;;;;;;1.65;0.93;;;18.30;99.90;;;;;;5052084;28;20040;-41
2023/08/08 00:49:39;;;;;;;1.15;0.80;;;18.30;99.90;;;;;;5051698;28;20025;-43
2023/08/08 00:52:06;;;;;;;1.02;0.70;;;18.20;99.90;;;;;;5052005;28;20100;-43
2023/08/08 00:54:32;;;;;;;2.13;0.70;;;18.20;99.90;;;;;;5051744;28;20044;-43
2023/08/08 00:56:58;;;;;;;0.88;0.80;;;18.30;99.90;;;;;;5051389;28;20028;-50
2023/08/08 00:59:24;;;;;;;1.10;0.75;;;18.20;99.90;;;;;;5051573;28;20155;-43
2023/08/08 01:01:49;;;;;;;1.00;0.77;;;18.20;99.90;;;;;;5051916;28;20031;-46
2023/08/08 01:04:16;;;;;;;1.73;0.93;;;18.20;99.90;;;;;;5051603;28;20104;-43
2023/08/08 01:06:57;;;;;;;2.58;0.95;;;18.20;99.90;;;;;;5051717;28;20277;-43
2023/08/08 01:10:04;;;;;;;1.55;0.80;;;18.20;99.90;;;;;;5051732;28;20029;-42
2023/08/08 01:12:30;;;;;;;1.42;0.75;;;18.20;99.90;;;;;;5045714;28;20080;-44
2023/08/08 01:14:57;;;;;;;0.95;0.80;;;18.20;99.90;;;;;;5051529;28;20060;-43
2023/08/08 01:17:23;;;;;;;3.67;0.90;;;18.20;99.90;;;;;;5051534;28;20484;-45
2023/08/08 01:19:49;;;;;;;0.90;0.80;;;18.20;99.90;;;;;;5051125;28;20136;-43
2023/08/08 01:22:25;;;;;;;1.23;0.88;;;18.20;99.90;;;;;;5051458;28;20017;-43
2023/08/08 01:24:52;;;;;;;1.52;0.90;;;18.20;99.90;;;;;;5052052;28;20575;-42
2023/08/08 01:27:17;;;;;;;0.93;0.75;;;18.20;99.90;;;;;;5051298;28;20030;-44
2023/08/08 01:29:43;;;;;;;1.85;1.00;;;18.20;99.90;;;;;;5051097;28;20116;-46
2023/08/08 01:32:10;;;;;;;2.85;0.63;;;18.20;99.90;;;;;;5051290;28;20029;-43
2023/08/08 01:34:36;;;;;;;1.10;0.70;;;18.20;99.90;;;;;;5051215;28;20025;-42
2023/08/08 01:37:17;;;;;;;1.02;0.68;;;18.20;99.90;;;;;;5051220;28;20070;-42
2023/08/08 01:39:46;;;;;;;1.83;0.80;;;18.20;99.90;;;;;;5051279;28;20025;-43
2023/08/08 01:42:13;;;;;;;1.02;0.70;;;18.20;99.90;;;;;;5051346;28;20104;-42
2023/08/08 01:44:40;;;;;;;1.48;0.80;;;18.20;99.90;;;;;;5051119;28;20021;-44
2023/08/08 01:47:07;;;;;;;1.35;0.95;;;18.20;99.90;;;;;;5051170;28;20036;-43
2023/08/08 01:49:33;;;;;;;2.30;0.90;;;18.20;99.90;;;;;;5050887;28;20144;-42
2023/08/08 01:51:59;;;;;;;2.08;0.90;;;18.20;99.90;;;;;;5051254;28;20527;-41
2023/08/08 01:54:25;;;;;;;1.00;0.90;;;18.20;99.90;;;;;;5051070;28;20032;-43
2023/08/08 01:56:50;;;;;;;0.98;0.73;;;18.20;99.90;;;;;;5051170;28;20104;-42
2023/08/08 01:59:16;;;;;;;1.30;0.95;;;18.20;99.90;;;;;;5049442;28;20044;-42
2023/08/08 02:01:41;;;;;;;1.10;0.82;;;18.20;99.90;;;;;;5051004;28;20033;-44
2023/08/08 02:04:07;;;;;;;1.40;0.80;;;18.20;99.90;;;;;;5050886;28;20021;-42
2023/08/08 02:06:33;;;;;;;1.77;1.10;;;18.20;99.90;;;;;;5051021;28;20021;-42
2023/08/08 02:08:58;;;;;;;1.35;0.95;;;18.10;99.90;;;;;;5051717;28;20112;-44
2023/08/08 02:11:24;;;;;;;1.55;0.95;;;18.20;99.90;;;;;;5055030;28;20018;-43
2023/08/08 02:13:49;;;;;;;1.30;0.90;;;18.10;99.90;;;;;;5053469;28;20021;-42
2023/08/08 02:16:15;;;;;;;1.23;0.90;;;18.10;99.90;;;;;;5055047;28;20051;-44
2023/08/08 02:18:41;;;;;;;1.58;0.70;;;18.10;99.90;;;;;;5054843;28;20488;-43
2023/08/08 02:21:10;;;;;;;1.13;0.70;;;18.10;99.90;;;;;;5054881;28;20052;-42
2023/08/08 02:23:35;;;;;;;1.33;0.77;;;18.10;99.90;;;;;;5054543;28;20032;-42
2023/08/08 02:26:01;;;;;;;1.02;0.80;;;18.10;99.90;;;;;;5054717;28;20036;-42
2023/08/08 02:28:27;;;;;;;1.40;0.90;;;18.10;99.90;;;;;;5054435;28;20586;-43
2023/08/08 02:30:53;;;;;;;1.83;0.95;;;18.10;99.90;;;;;;5054466;28;20384;-42
2023/08/08 02:33:19;;;;;;;0.80;0.60;;;18.10;99.90;;;;;;5054892;28;20025;-43
2023/08/08 02:35:45;;;;;;;2.28;0.90;;;18.10;99.90;;;;;;5054574;28;20561;-44
2023/08/08 02:38:10;;;;;;;1.98;0.90;;;18.10;99.90;;;;;;5054458;28;20384;-45
2023/08/08 02:40:36;;;;;;;0.80;0.68;;;18.20;99.90;;;;;;5054267;28;20077;-43
2023/08/08 02:43:02;;;;;;;1.60;0.88;;;18.10;99.90;;;;;;5054237;28;20384;-44
2023/08/08 02:45:28;;;;;;;1.80;0.70;;;18.10;99.90;;;;;;5054380;28;20029;-43
2023/08/08 02:47:53;;;;;;;1.33;0.88;;;18.10;99.90;;;;;;5054550;28;20029;-43
2023/08/08 02:50:19;;;;;;;1.05;0.88;;;18.10;99.90;;;;;;5054035;28;20025;-43
2023/08/08 02:52:44;;;;;;;1.13;0.80;;;18.10;99.90;;;;;;5054474;28;20021;-43
2023/08/08 02:55:10;;;;;;;0.80;0.57;;;18.10;99.90;;;;;;5054314;28;20531;-43
2023/08/08 02:57:36;;;;;;;1.67;0.90;;;18.10;99.90;;;;;;5054109;28;20096;-42
2023/08/08 03:00:03;;;;;;;1.42;0.70;;;18.10;99.90;;;;;;5054850;28;20025;-45
2023/08/08 03:02:29;;;;;;;2.15;0.95;;;18.10;99.90;;;;;;5054084;28;20398;-44
2023/08/08 03:04:55;;;;;;;1.00;0.80;;;18.10;99.90;;;;;;5054044;28;20492;-42
2023/08/08 03:07:20;;;;;;;1.33;0.80;;;18.10;99.90;;;;;;5052709;28;20388;-40
2023/08/08 03:09:46;;;;;;;1.17;0.75;;;18.10;99.90;;;;;;5053660;28;20017;-42
2023/08/08 03:12:11;;;;;;;0.70;0.60;;;18.10;99.90;;;;;;5054296;28;20079;-43
2023/08/08 03:14:37;;;;;;;1.20;0.90;;;18.10;99.90;;;;;;5053787;28;20032;-42
2023/08/08 03:17:03;;;;;;;1.45;0.88;;;18.10;99.90;;;;;;5053775;28;20107;-43
2023/08/08 03:19:28;;;;;;;1.42;0.88;;;18.10;99.90;;;;;;5053200;28;20116;-43
2023/08/08 03:21:54;;;;;;;1.40;1.00;;;18.10;99.90;;;;;;5053647;28;20104;-42
2023/08/08 03:24:20;;;;;;;1.13;0.80;;;18.10;99.90;;;;;;5053485;28;20471;-45
2023/08/08 03:26:45;;;;;;;1.10;0.80;;;18.10;99.90;;;;;;5053590;28;20079;-40
2023/08/08 03:29:12;;;;;;;1.10;0.93;;;18.10;99.90;;;;;;5053215;28;20383;-42
2023/08/08 03:31:38;;;;;;;1.25;0.75;;;18.10;99.90;;;;;;5053567;28;20025;-43
2023/08/08 03:34:04;;;;;;;0.90;0.77;;;18.10;99.90;;;;;;5053498;28;20070;-43
2023/08/08 03:36:30;;;;;;;0.80;0.63;;;18.10;99.90;;;;;;5053441;28;20025;-42
2023/08/08 03:38:55;;;;;;;1.10;0.82;;;18.10;99.90;;;;;;5053298;28;20059;-43
2023/08/08 03:41:21;;;;;;;0.82;0.75;;;18.10;99.90;;;;;;5053174;28;20029;-43
2023/08/08 03:43:46;;;;;;;1.38;0.90;;;18.10;99.90;;;;;;5053236;28;20033;-45
2023/08/08 03:46:12;;;;;;;2.50;0.80;;;18.10;99.90;;;;;;5051977;28;20479;-43
2023/08/08 03:48:38;;;;;;;1.35;0.95;;;18.10;99.90;;;;;;5053321;28;20362;-42
2023/08/08 03:51:04;;;;;;;1.83;0.90;;;18.10;99.90;;;;;;5052949;28;20032;-45
2023/08/08 03:53:30;;;;;;;1.02;0.70;;;18.00;99.90;;;;;;5052948;28;20029;-44
2023/08/08 03:55:55;;;;;;;1.10;0.80;;;18.10;99.90;;;;;;5052967;28;20025;-43
2023/08/08 03:58:21;;;;;;;0.98;0.80;;;18.10;99.90;;;;;;5052993;28;20396;-45
2023/08/08 04:00:47;;;;;;;2.10;0.90;;;18.10;99.90;;;;;;5052815;28;20500;-43
2023/08/08 04:03:14;;;;;;;1.00;0.65;;;18.10;99.90;;;;;;5053003;28;20033;-43
2023/08/08 04:05:41;;;;;;;1.55;0.95;;;18.10;99.90;;;;;;5052845;28;20036;-43
2023/08/08 04:08:07;;;;;;;1.45;0.85;;;18.10;99.90;;;;;;5052799;28;20108;-42
2023/08/08 04:10:33;;;;;;;2.10;0.80;;;18.10;99.90;;;;;;5052434;28;20131;-45
2023/08/08 04:12:58;;;;;;;1.20;0.90;;;18.00;99.90;;;;;;5052682;28;20036;-43
2023/08/08 04:15:24;;;;;;;0.75;0.70;;;18.10;99.90;;;;;;5052706;28;20021;-42
2023/08/08 04:17:49;;;;;;;1.10;0.70;;;18.00;99.90;;;;;;5052696;28;20021;-45
2023/08/08 04:20:15;;;;;;;2.22;0.82;;;18.10;99.90;;;;;;5052404;28;20059;-42
2023/08/08 04:22:41;;;;;;;3.05;0.90;;;18.10;99.90;;;;;;5052395;28;20056;-43
2023/08/08 04:25:07;;;;;;;0.95;0.85;;;18.10;99.90;;;;;;5052463;28;20045;-47
2023/08/08 04:27:33;;;;;;;1.67;1.00;;;18.00;99.90;;;;;;5052467;28;20602;-42
2023/08/08 04:29:59;;;;;;;0.80;0.70;;;18.10;99.90;;;;;;5052124;28;20108;-43
2023/08/08 04:32:24;;;;;;;1.23;0.90;;;18.00;99.90;;;;;;5050403;28;20094;-45
2023/08/08 04:34:50;;;;;;;0.80;0.65;;;18.00;99.90;;;;;;5052265;28;20021;-44
2023/08/08 04:37:15;;;;;;;1.35;0.80;;;18.00;99.90;;;;;;5052243;28;20100;-43
2023/08/08 04:39:41;;;;;;;1.05;0.75;;;18.00;99.90;;;;;;5051868;28;20071;-45
2023/08/08 04:42:07;;;;;;;1.33;0.95;;;18.00;99.90;;;;;;5052194;28;20025;-48
2023/08/08 04:44:32;;;;;;;1.70;0.90;;;18.00;99.90;;;;;;5052039;28;20095;-43
2023/08/08 04:46:58;;;;;;;1.90;0.95;;;18.00;99.90;;;;;;5052009;28;20025;-40
2023/08/08 04:49:23;;;;;;;1.45;0.77;;;18.00;99.90;;;;;;5051736;28;20040;-42
2023/08/08 04:51:49;;;;;;;1.48;0.80;;;18.00;99.90;;;;;;5052015;28;20052;-45
2023/08/08 04:54:15;;;;;;;1.45;0.80;;;18.00;99.90;;;;;;5051759;28;20563;-46
2023/08/08 04:56:40;;;;;;;1.90;1.10;;;18.00;99.90;;;;;;5052141;28;20021;-45
2023/08/08 04:59:06;;;;;;;1.50;0.90;;;18.00;99.90;;;;;;5051654;28;20033;-43
2023/08/08 05:01:33;;;;;;;2.15;0.65;;;18.00;99.90;;;;;;5052350;28;20686;-43
2023/08/08 05:03:59;;;;;;;0.80;0.68;;;18.00;99.90;;;;;;5052491;28;20028;-49
2023/08/08 05:06:24;;;;;;;1.70;0.90;;;18.00;99.90;;;;;;5051929;28;20037;-43
2023/08/08 05:08:52;;;;;;;2.78;0.80;;;18.00;99.90;;;;;;5050140;28;20029;-43
2023/08/08 05:11:18;;;;;;;0.88;0.60;;;18.00;99.90;;;;;;5051676;28;20468;-45
2023/08/08 05:13:43;;;;;;;2.22;1.10;;;18.00;99.90;;;;;;5051600;28;20112;-43
2023/08/08 05:16:09;;;;;;;2.08;0.90;;;18.00;99.90;;;;;;5051588;28;20027;-44
2023/08/08 05:18:35;;;;;;;1.63;0.90;;;18.00;99.90;;;;;;5051545;28;20029;-43
2023/08/08 05:21:00;;;;;;;1.52;0.77;;;18.00;99.90;;;;;;5051321;28;20115;-47
2023/08/08 05:23:26;;;;;;;3.03;0.82;;;18.00;99.90;;;;;;5051209;28;20400;-44
2023/08/08 05:25:51;;;;;;;1.73;0.73;;;18.00;99.90;;;;;;5051478;28;20071;-45
2023/08/08 05:28:17;;;;;;;1.58;0.90;;;18.00;99.90;;;;;;5051428;28;20025;-44
2023/08/08 05:30:43;;;;;;;0.60;0.50;;;18.00;99.90;;;;;;5051245;28;20025;-42
2023/08/08 05:33:08;;;;;;;1.38;0.90;;;18.00;99.90;;;;;;5051289;28;20025;-43
2023/08/08 05:35:34;;;;;;;1.35;0.70;;;18.00;99.90;;;;;;5051279;28;20025;-42
2023/08/08 05:38:00;;;;;;;1.20;0.80;;;18.00;99.90;;;;;;5051147;28;20021;-44
2023/08/08 05:40:25;;;;;;;0.70;0.50;;;18.00;99.90;;;;;;5051240;28;20395;-41
2023/08/08 05:42:51;;;;;;;2.22;1.05;;;18.00;99.90;;;;;;5051293;28;20028;-41
2023/08/08 05:45:17;;;;;;;0.98;0.80;;;18.00;99.90;;;;;;5051329;28;20508;-42
2023/08/08 05:47:42;;;;;;;1.05;0.80;;;18.00;99.90;;;;;;5051498;28;20021;-43
2023/08/08 05:50:08;;;;;;;1.58;0.90;;;18.00;99.90;;;;;;5050769;28;20037;-42
2023/08/08 05:52:34;;;;;;;1.83;1.10;;;18.00;99.90;;;;;;5051001;28;20481;-43
2023/08/08 05:54:59;;;;;;;2.28;0.90;;;18.00;99.90;;;;;;5051091;28;20036;-44
2023/08/08 05:57:26;;;;;;;1.27;0.70;;;18.00;99.90;;;;;;5051069;28;20021;-42
2023/08/08 05:59:52;;;;;;;1.83;0.80;;;18.00;99.90;;;;;;5050834;28;20082;-44
2023/08/08 06:02:17;;;;;;;1.10;0.60;;;18.00;99.90;;;;;;5051113;28;20056;-44
2023/08/08 06:04:43;;;;;;;1.10;0.88;;;18.00;99.90;;;;;;5050833;28;20029;-45
2023/08/08 06:07:09;;;;;;;1.45;0.95;;;18.00;99.90;;;;;;5050884;28;20492;-45
2023/08/08 06:09:36;;;;;;;1.10;0.80;;;18.00;99.90;;;;;;5050658;28;20025;-43
2023/08/08 06:12:02;;;;;;;1.73;0.73;;;18.00;99.90;;;;;;5050923;28;20025;-44
2023/08/08 06:14:28;;;;;;;1.25;0.63;;;18.00;99.90;;;;;;5050861;28;20396;-43
2023/08/08 06:16:54;;;;;;;1.45;0.77;;;18.00;99.90;;;;;;5050903;28;20053;-43
2023/08/08 06:19:19;;;;;;;1.05;0.65;;;18.00;99.90;;;;;;5050663;28;20024;-43
2023/08/08 06:21:46;;;;;;;1.30;0.80;;;18.00;99.90;;;;;;5051244;28;20025;-43
2023/08/08 06:24:12;;;;;;;1.27;0.80;;;18.00;99.90;;;;;;5050589;28;20492;-42
2023/08/08 06:26:38;;;;;;;1.83;0.93;;;18.00;99.90;;;;;;5050807;28;20059;-43
2023/08/08 06:29:03;;;;;;;1.13;0.80;;;18.00;99.90;;;;;;5050446;28;20492;-42
2023/08/08 06:31:30;;;;;;;1.20;0.85;;;18.00;99.90;;;;;;5050829;28;20036;-43
2023/08/08 06:33:55;;;;;;;0.95;0.80;;;18.00;99.90;;;;;;5050633;28;20092;-39
2023/08/08 06:36:21;;;;;;;1.45;0.70;;;18.00;99.90;;;;;;5050587;28;20120;-43
2023/08/08 06:38:47;;;;;;;1.15;0.70;;;18.00;99.90;;;;;;5050621;28;20388;-42
2023/08/08 06:41:12;;;;;;;1.52;0.60;;;18.00;99.90;;;;;;5050623;28;20104;-43
2023/08/08 06:43:38;;;;;;;1.00;0.70;;;18.00;99.90;;;;;;5050595;28;20556;-43
2023/08/08 06:46:04;;;;;;;1.50;0.80;;;18.10;99.90;;;;;;5050778;28;20033;-43
2023/08/08 06:48:30;;;;;;;2.08;0.95;;;18.00;99.90;;;;;;5050543;28;20431;-41
2023/08/08 06:50:55;;;;;;;1.63;0.82;;;18.00;99.90;;;;;;5050262;28;20032;-41
2023/08/08 06:53:21;;;;;;;2.30;0.90;;;18.10;99.90;;;;;;5050502;28;20124;-43
2023/08/08 06:55:47;;;;;;;1.25;0.85;;;18.10;99.90;;;;;;5052984;28;20059;-43
2023/08/08 06:58:12;;;;;;;0.85;0.77;;;18.10;99.90;;;;;;5054211;28;20385;-42
2023/08/08 07:00:38;;;;;;;1.10;0.80;;;18.10;99.90;;;;;;5053890;28;20056;-42
2023/08/08 07:03:05;;;;;;;1.35;0.65;;;18.10;99.90;;;;;;5054077;28;20074;-42
2023/08/08 07:05:30;;;;;;;1.83;0.80;;;18.10;99.90;;;;;;5053994;28;20021;-43
2023/08/08 07:07:56;;;;;;;1.00;0.60;;;18.10;99.90;;;;;;5053895;28;20424;-44
2023/08/08 07:10:22;;;;;;;3.53;0.75;;;18.10;99.90;;;;;;5053771;28;20027;-45
2023/08/08 07:12:48;;;;;;;1.73;0.80;;;18.10;99.90;;;;;;5053788;28;20134;-43
2023/08/08 07:15:14;;;;;;;1.23;0.82;;;18.10;99.90;;;;;;5053909;28;20491;-43
2023/08/08 07:17:40;;;;;;;1.67;0.73;;;18.10;99.90;;;;;;5053780;28;20036;-43
2023/08/08 07:20:06;;;;;;;1.77;0.88;;;18.10;99.90;;;;;;5053468;28;20026;-44
2023/08/08 07:22:32;;;;;;;3.05;0.80;;;18.10;99.90;;;;;;5053546;28;20028;-42
2023/08/08 07:24:59;;;;;;;1.85;0.90;;;18.10;99.90;;;;;;5054196;28;20480;-45
2023/08/08 07:27:26;;;;;;;1.13;0.70;;;18.10;99.90;;;;;;5053649;28;20041;-43
2023/08/08 07:29:52;;;;;;;1.20;0.75;;;18.10;99.90;;;;;;5053365;28;20036;-45
2023/08/08 07:32:18;;;;;;;1.13;0.77;;;18.10;99.90;;;;;;5053492;28;20029;-44
2023/08/08 07:34:43;;;;;;;2.13;0.70;;;18.20;99.90;;;;;;5053301;28;20104;-42
2023/08/08 07:37:09;;;;;;;1.23;0.50;;;18.20;99.90;;;;;;5053422;28;20037;-43
2023/08/08 07:39:34;;;;;;;1.88;0.70;;;18.20;99.90;;;;;;5052170;28;20037;-43
2023/08/08 07:42:00;;;;;;;1.27;0.80;;;18.10;99.90;;;;;;5053709;28;20110;-42
2023/08/08 07:44:26;;;;;;;1.10;0.70;;;18.20;99.90;;;;;;5053245;28;20434;-46
2023/08/08 07:46:51;;;;;;;0.70;0.68;;;18.20;99.90;;;;;;5053876;28;20063;-47
2023/08/08 07:49:17;;;;;;;1.33;0.70;;;18.20;99.90;;;;;;5052808;28;20025;-43
2023/08/08 07:51:43;;;;;;;1.58;0.90;;;18.20;99.90;;;;;;5053254;28;20082;-45
2023/08/08 07:54:10;;;;;;;1.17;0.80;;;18.20;99.90;;;;;;5053096;28;20017;-43
2023/08/08 07:56:36;;;;;;;1.70;0.98;;;18.20;99.90;;;;;;5053164;28;20025;-44
2023/08/08 07:59:02;;;;;;;1.08;0.70;;;18.20;99.90;;;;;;5052877;28;20575;-43
2023/08/08 08:01:28;;;;;;;2.45;1.00;;;18.20;99.90;;;;;;5052983;28;20086;-44
2023/08/08 08:03:54;;;;;;;0.73;0.60;;;18.20;99.90;;;;;;5052808;28;20044;-44
2023/08/08 08:06:19;;;;;;;1.40;0.93;;;18.20;99.90;;;;;;5051939;28;20408;-42
2023/08/08 08:08:45;;;;;;;1.70;0.80;;;18.20;99.90;;;;;;5052734;28;20481;-43
2023/08/08 08:11:13;;;;;;;1.17;0.90;;;18.20;99.90;;;;;;5051478;28;20442;-41
2023/08/08 08:13:38;;;;;;;1.30;0.80;;;18.20;99.90;;;;;;5052755;28;20473;-43
2023/08/08 08:16:05;;;;;;;1.20;0.93;;;18.20;99.90;;;;;;5052672;28;20021;-43
2023/08/08 08:18:30;;;;;;;1.67;0.90;;;18.20;99.90;;;;;;5052552;28;20118;-44
2023/08/08 08:20:56;;;;;;;1.40;0.90;;;18.20;99.90;;;;;;5052482;28;20561;-45
2023/08/08 08:23:22;;;;;;;37.33;2.33;;;18.20;99.90;;;;;;5052326;28;20131;-40
2023/08/08 08:25:48;;;;;;;7.30;1.08;;;18.20;99.90;;;;;;5051214;28;20036;-41
2023/08/08 08:28:14;;;;;;;4.55;1.25;;;18.20;99.90;;;;;;5052384;28;20147;-39
2023/08/08 08:30:40;;;;;;;3.20;1.00;;;18.20;99.90;;;;;;5052127;28;20040;-42
2023/08/08 08:33:07;;;;;;;3.22;1.00;;;18.10;99.90;;;;;;5050872;28;20017;-43
2023/08/08 08:35:34;;;;;;;2.13;1.10;;;18.10;99.90;;;;;;5052252;28;20382;-43
2023/08/08 08:38:00;;;;;;;3.63;1.20;;;18.10;99.90;;;;;;5052241;28;20029;-40
2023/08/08 08:40:27;;;;;;;3.22;1.38;;;18.10;99.90;;;;;;5051963;28;20023;-40
2023/08/08 08:42:53;;;;;;;2.45;1.13;;;18.10;99.90;;;;;;5052144;28;20230;-42
2023/08/08 08:45:21;;;;;;;2.33;0.95;;;18.10;99.90;;;;;;5052136;28;20404;-46
2023/08/08 08:47:50;;;;;;;2.03;0.93;;;18.10;99.90;;;;;;5051993;28;20449;-38
2023/08/08 08:50:17;;;;;;;1.77;1.10;;;18.20;99.90;;;;;;5067077;28;20021;-41
2023/08/08 08:52:43;;;;;;;2.10;1.10;;;18.20;99.90;;;;;;5051913;28;20094;-44
2023/08/08 08:55:09;;;;;;;2.65;0.80;;;18.20;99.90;;;;;;5051999;28;20103;-42
2023/08/08 08:57:37;;;;;;;2.17;0.95;;;18.20;99.90;;;;;;5051931;28;20100;-41
2023/08/08 09:00:03;;;;;;;2.08;0.95;;;18.20;99.90;;;;;;5051544;28;20502;-41
2023/08/08 09:02:29;;;;;;;1.98;1.00;;;18.20;99.90;;;;;;5051724;28;20028;-43
2023/08/08 09:04:55;;;;;;;4.10;0.95;;;18.20;99.90;;;;;;5051810;28;20571;-42
2023/08/08 09:07:26;;;;;;;4.45;1.00;;;18.20;99.90;;;;;;5051843;28;20063;-41
2023/08/08 09:09:52;;;;;;;3.17;0.90;;;18.20;99.90;;;;;;5051580;28;20395;-42
2023/08/08 09:12:18;;;;;;;1.77;0.93;;;18.30;99.90;;;;;;5051752;28;20021;-41
2023/08/08 09:14:44;;;;;;;2.10;1.08;;;18.30;99.90;;;;;;5051378;28;20025;-39
2023/08/08 09:17:13;;;;;;;2.42;1.02;;;18.30;99.90;;;;;;5051496;28;20392;-41
2023/08/08 09:19:44;;;;;;;2.22;0.93;;;18.30;99.90;;;;;;5051224;28;20043;-39
2023/08/08 09:22:09;;;;;;;2.25;1.00;;;18.30;99.90;;;;;;5051537;28;20041;-42
2023/08/08 09:24:41;;;;;;;1.45;0.80;;;18.30;99.90;;;;;;5051266;28;20045;-41
2023/08/08 09:27:08;;;;;;;1.75;1.00;;;18.30;99.90;;;;;;5051452;28;20107;-39
2023/08/08 09:29:33;;;;;;;2.55;1.02;;;18.30;99.90;;;;;;5050992;28;20025;-41
2023/08/08 09:32:01;;;;;;;1.58;0.98;;;18.30;99.90;;;;;;5051399;28;20163;-42
2023/08/08 09:34:28;;;;;;;1.95;0.98;;;18.30;99.90;;;;;;5051260;28;20017;-39
2023/08/08 09:36:55;;;;;;;3.30;1.13;;;18.40;99.90;;;;;;5051654;28;20021;-42
2023/08/08 09:39:21;;;;;;;1.30;0.70;;;18.40;99.90;;;;;;5051642;28;20025;-41
2023/08/08 09:41:47;;;;;;;1.25;0.70;;;18.30;99.90;;;;;;5051231;28;20036;-41
2023/08/08 09:44:12;;;;;;;1.65;0.82;;;18.30;99.90;;;;;;5051056;28;20028;-43
2023/08/08 09:46:39;;;;;;;2.05;0.90;;;18.40;99.90;;;;;;5051249;28;20026;-42
2023/08/08 09:49:05;;;;;;;2.80;1.00;;;18.40;99.90;;;;;;5051115;28;20072;-42
2023/08/08 09:51:33;;;;;;;1.35;0.88;;;18.40;99.90;;;;;;5051182;28;20131;-40
2023/08/08 09:53:59;;;;;;;1.45;1.05;;;18.40;99.90;;;;;;5051027;28;20017;-40
2023/08/08 09:56:26;;;;;;;1.25;0.85;;;18.40;99.90;;;;;;5051040;28;20021;-42
2023/08/08 09:58:56;;;;;;;1.88;0.80;;;18.40;99.90;;;;;;5050890;28;20024;-39
2023/08/08 10:01:22;;;;;;;1.65;0.88;;;18.40;99.90;;;;;;5051096;28;20067;-40
2023/08/08 10:03:51;;;;;;;1.20;0.70;;;18.40;99.90;;;;;;5051299;28;20065;-41
2023/08/08 10:06:16;;;;;;;1.67;0.90;;;18.40;99.90;;;;;;5051027;28;20095;-42
2023/08/08 10:08:42;;;;;;;1.60;0.88;;;18.40;99.90;;;;;;5050790;28;20492;-41
2023/08/08 10:11:10;;;;;;;1.25;0.75;;;18.40;99.90;;;;;;5050827;28;20442;-40
2023/08/08 10:13:36;;;;;;;1.00;0.80;;;18.50;99.90;;;;;;5051171;28;20390;-41
2023/08/08 10:16:08;;;;;;;2.47;0.90;;;18.50;99.90;;;;;;5050973;28;20021;-41
2023/08/08 10:18:34;;;;;;;1.30;0.77;;;18.50;99.90;;;;;;5050907;28;20104;-42
2023/08/08 10:21:03;;;;;;;2.08;1.00;;;18.50;99.90;;;;;;5050749;28;20108;-41
2023/08/08 10:23:38;;;;;;;1.17;0.98;;;18.50;99.90;;;;;;5049283;28;20083;-46
2023/08/08 10:26:04;;;;;;;1.20;0.80;;;18.50;99.90;;;;;;5050891;28;20480;-42
2023/08/08 10:28:32;;;;;;;1.48;0.80;;;18.50;99.90;;;;;;5050851;28;20053;-41
2023/08/08 10:31:01;;;;;;;1.65;1.10;;;18.50;99.90;;;;;;5053280;28;20028;-41
2023/08/08 10:33:40;;;;;;;1.23;0.75;;;18.50;99.90;;;;;;5054631;28;20487;-42
2023/08/08 10:36:07;;;;;;;0.75;0.63;;;18.50;99.90;;;;;;5054604;28;20024;-41
2023/08/08 10:38:48;;;;;;;1.83;0.93;;;18.50;99.90;;;;;;5054515;28;20560;-39
2023/08/08 10:41:17;;;;;;;1.83;0.90;;;18.50;99.90;;;;;;5054436;28;20024;-42
2023/08/08 10:43:51;;;;;;;1.05;0.73;;;18.50;99.90;;;;;;5054339;28;20029;-41
2023/08/08 10:46:23;;;;;;;1.00;0.68;;;18.50;99.90;;;;;;5054347;28;20052;-42
2023/08/08 10:48:50;;;;;;;2.55;0.80;;;18.70;99.90;;;;;;5069513;28;20429;-42
2023/08/08 10:51:17;;;;;;;1.88;0.77;;;18.60;99.90;;;;;;5054346;28;20017;-40
2023/08/08 10:53:43;;;;;;;1.70;0.88;;;18.60;99.90;;;;;;5054181;28;20029;-39
2023/08/08 10:56:13;;;;;;;1.77;0.90;;;18.60;99.90;;;;;;5052930;28;20029;-42
2023/08/08 10:58:41;;;;;;;1.67;0.95;;;18.60;99.90;;;;;;5054190;28;20420;-42
2023/08/08 11:01:08;;;;;;;1.60;0.70;;;18.60;99.90;;;;;;5052632;28;20392;-42
2023/08/08 11:03:36;;;;;;;2.00;0.90;;;18.60;99.90;;;;;;5054036;28;20033;-42
2023/08/08 11:06:03;;;;;;;1.20;0.80;;;18.70;99.90;;;;;;5052776;28;20033;-43
2023/08/08 11:08:30;;;;;;;1.45;0.85;;;18.70;99.90;;;;;;5052627;28;20025;-43
2023/08/08 11:10:57;;;;;;;1.48;0.98;;;18.70;99.90;;;;;;5053771;28;20033;-42
2023/08/08 11:13:23;;;;;;;2.15;0.82;;;18.60;99.90;;;;;;5053781;28;20035;-42
2023/08/08 11:15:48;;;;;;;1.10;0.88;;;18.70;99.90;;;;;;5053875;28;20017;-41
2023/08/08 11:18:14;;;;;;;1.10;0.80;;;18.70;99.90;;;;;;5053863;28;20048;-43
2023/08/08 11:20:40;;;;;;;1.33;0.77;;;18.70;99.90;;;;;;5053567;28;20051;-42
2023/08/08 11:23:10;;;;;;;3.28;0.90;;;18.80;99.90;;;;;;5053651;28;20110;-38
2023/08/08 11:25:36;;;;;;;0.82;0.60;;;18.80;99.90;;;;;;5054164;28;20017;-42
2023/08/08 11:28:02;;;;;;;1.02;0.73;;;18.80;99.90;;;;;;5053835;28;20021;-44
2023/08/08 11:30:30;;;;;;;1.00;0.80;;;18.80;99.90;;;;;;5053255;28;20362;-40
2023/08/08 11:32:55;;;;;;;0.90;0.70;;;18.80;99.90;;;;;;5053489;28;20013;-41
2023/08/08 11:35:23;;;;;;;0.75;0.50;;;18.80;99.90;;;;;;5052352;28;20027;-41
2023/08/08 11:37:51;;;;;;;1.35;0.80;;;18.80;99.90;;;;;;5053541;28;20284;-42
2023/08/08 11:40:17;;;;;;;1.25;0.80;;;18.80;99.90;;;;;;5053083;28;20053;-42
2023/08/08 11:42:44;;;;;;;2.13;0.80;;;18.90;99.90;;;;;;5053056;28;20040;-41
2023/08/08 11:45:13;;;;;;;1.50;0.80;;;18.90;99.90;;;;;;5053383;28;20045;-40
2023/08/08 11:47:40;;;;;;;2.63;0.90;;;18.90;99.90;;;;;;5053256;28;20047;-42
2023/08/08 11:50:08;;;;;;;1.90;0.88;;;18.90;99.90;;;;;;5052916;28;20506;-42
2023/08/08 11:52:40;;;;;;;1.27;0.80;;;18.90;99.90;;;;;;5053143;28;20024;-41
2023/08/08 11:55:08;;;;;;;0.95;0.70;;;18.90;99.90;;;;;;5053446;28;20367;-43
2023/08/08 11:57:39;;;;;;;1.40;0.85;;;18.90;99.90;;;;;;5053050;28;20120;-42
2023/08/08 12:00:12;;;;;;;1.67;0.82;;;18.90;99.90;;;;;;5052899;28;20124;-42
2023/08/08 12:02:39;;;;;;;1.20;0.80;;;18.90;99.90;;;;;;5052919;28;20380;-42
2023/08/08 12:05:13;;;;;;;1.35;0.73;;;18.90;99.90;;;;;;5053104;28;20087;-42
2023/08/08 12:07:41;;;;;;;2.25;0.90;;;18.90;99.90;;;;;;5052911;28;20036;-42
2023/08/08 12:10:16;;;;;;;1.30;0.82;;;18.90;99.90;;;;;;5052565;28;20025;-41
2023/08/08 12:12:42;;;;;;;1.58;0.90;;;18.90;99.90;;;;;;5052780;28;20021;-45
2023/08/08 12:15:08;;;;;;;1.73;1.05;;;19.00;99.90;;;;;;5052765;28;20059;-42
2023/08/08 12:17:35;;;;;;;1.80;0.90;;;19.00;99.90;;;;;;5052736;28;20021;-42
2023/08/08 12:20:07;;;;;;;1.42;0.77;;;19.00;99.90;;;;;;5052377;28;20373;-42
2023/08/08 12:22:33;;;;;;;1.60;0.80;;;19.00;99.90;;;;;;5052492;28;20056;-44
2023/08/08 12:24:59;;;;;;;1.25;0.77;;;19.00;99.90;;;;;;5052563;28;20415;-42
2023/08/08 12:27:25;;;;;;;2.70;0.93;;;19.00;99.90;;;;;;5052753;28;20036;-42
2023/08/08 12:29:51;;;;;;;3.10;0.88;;;19.00;99.90;;;;;;5052163;28;20036;-43
2023/08/08 12:32:19;;;;;;;1.15;0.70;;;19.00;99.90;;;;;;5052449;28;20545;-44
2023/08/08 12:34:45;;;;;;;1.92;0.98;;;19.00;99.90;;;;;;5052227;28;20100;-42
2023/08/08 12:37:11;;;;;;;1.35;0.85;;;19.00;99.90;;;;;;5051352;28;20515;-42
2023/08/08 12:39:36;;;;;;;1.92;0.80;;;19.00;99.90;;;;;;5052100;28;20036;-42
2023/08/08 12:42:02;;;;;;;1.40;1.10;;;19.00;99.90;;;;;;5052310;28;20032;-40
2023/08/08 12:44:27;;;;;;;1.25;0.80;;;19.00;99.90;;;;;;5052121;28;20075;-43